createdAt,value
2018-05-11T00:00:24.246Z,955.47
2018-05-11T00:01:24.240Z,955.46
2018-05-11T00:02:24.233Z,955.43
2018-05-11T00:03:24.224Z,955.49
2018-05-11T00:04:24.216Z,955.5
2018-05-11T00:05:24.210Z,955.53
2018-05-11T00:06:24.200Z,955.44
2018-05-11T00:07:24.193Z,955.5
2018-05-11T00:08:24.184Z,955.48
2018-05-11T00:09:24.180Z,955.49
2018-05-11T00:10:24.168Z,955.47
2018-05-11T00:11:24.161Z,955.53
2018-05-11T00:12:24.153Z,955.53
2018-05-11T00:13:24.146Z,955.51
2018-05-11T00:14:24.137Z,955.49
2018-05-11T00:15:24.132Z,955.48
2018-05-11T00:16:24.127Z,955.48
2018-05-11T00:17:24.113Z,955.5
2018-05-11T00:18:24.106Z,955.51
2018-05-11T00:19:24.099Z,955.5
2018-05-11T00:20:24.090Z,955.52
2018-05-11T00:21:24.081Z,955.51
2018-05-11T00:22:24.277Z,955.5
2018-05-11T00:23:24.118Z,955.54
2018-05-11T00:24:24.060Z,955.51
2018-05-11T00:25:24.051Z,955.52
2018-05-11T00:26:24.045Z,955.51
2018-05-11T00:27:24.037Z,955.58
2018-05-11T00:28:24.028Z,955.53
2018-05-11T00:29:24.021Z,955.55
2018-05-11T00:30:24.013Z,955.61
2018-05-11T00:31:24.005Z,955.58
2018-05-11T00:32:23.997Z,955.6
2018-05-11T00:33:23.992Z,955.61
2018-05-11T00:34:23.984Z,955.64
2018-05-11T00:35:23.974Z,955.62
2018-05-11T00:36:23.966Z,955.66
2018-05-11T00:37:23.959Z,955.66
2018-05-11T00:38:23.949Z,955.64
2018-05-11T00:39:23.942Z,955.66
2018-05-11T00:40:23.935Z,955.67
2018-05-11T00:41:23.928Z,955.66
2018-05-11T00:42:23.921Z,955.68
2018-05-11T00:43:23.914Z,955.66
2018-05-11T00:44:23.904Z,955.65
2018-05-11T00:45:23.897Z,955.62
2018-05-11T00:46:23.887Z,955.65
2018-05-11T00:47:23.878Z,955.62
2018-05-11T00:48:23.872Z,955.67
2018-05-11T00:49:23.866Z,955.68
2018-05-11T00:50:23.855Z,955.63
2018-05-11T00:51:23.864Z,955.65
2018-05-11T00:52:23.840Z,955.68
2018-05-11T00:53:23.833Z,955.69
2018-05-11T00:54:23.828Z,955.67
2018-05-11T00:55:23.817Z,955.66
2018-05-11T00:56:23.808Z,955.69
2018-05-11T00:57:23.800Z,955.67
2018-05-11T00:58:23.793Z,955.73
2018-05-11T00:59:24.005Z,955.72
2018-05-11T01:00:23.779Z,955.74
2018-05-11T01:01:23.769Z,955.75
2018-05-11T01:02:23.761Z,955.74
2018-05-11T01:03:23.754Z,955.75
2018-05-11T01:04:23.744Z,955.77
2018-05-11T01:05:23.737Z,955.76
2018-05-11T01:06:23.732Z,955.72
2018-05-11T01:07:23.721Z,955.72
2018-05-11T01:08:23.717Z,955.77
2018-05-11T01:09:23.708Z,955.78
2018-05-11T01:10:23.699Z,955.73
2018-05-11T01:11:23.690Z,955.77
2018-05-11T01:12:23.681Z,955.81
2018-05-11T01:13:23.673Z,955.77
2018-05-11T01:14:23.667Z,955.79
2018-05-11T01:15:23.658Z,955.76
2018-05-11T01:16:23.650Z,955.78
2018-05-11T01:17:23.643Z,955.74
2018-05-11T01:18:23.635Z,955.73
2018-05-11T01:19:23.626Z,955.74
2018-05-11T01:20:23.620Z,955.71
2018-05-11T01:21:23.626Z,955.72
2018-05-11T01:22:23.605Z,955.78
2018-05-11T01:23:23.599Z,955.77
2018-05-11T01:24:23.588Z,955.77
2018-05-11T01:25:23.579Z,955.78
2018-05-11T01:26:23.572Z,955.8
2018-05-11T01:27:23.564Z,955.84
2018-05-11T01:28:23.574Z,955.82
2018-05-11T01:29:23.549Z,955.86
2018-05-11T01:30:23.540Z,955.89
2018-05-11T01:31:23.532Z,955.85
2018-05-11T01:32:23.527Z,955.84
2018-05-11T01:33:23.517Z,955.84
2018-05-11T01:34:23.509Z,955.85
2018-05-11T01:35:23.500Z,955.87
2018-05-11T01:36:23.493Z,955.85
2018-05-11T01:37:23.483Z,955.87
2018-05-11T01:38:23.475Z,955.91
2018-05-11T01:39:23.467Z,955.91
2018-05-11T01:40:23.460Z,955.92
2018-05-11T01:41:23.450Z,955.95
2018-05-11T01:42:23.443Z,955.96
2018-05-11T01:43:23.437Z,955.99
2018-05-11T01:44:23.426Z,955.99
2018-05-11T01:45:23.419Z,955.99
2018-05-11T01:46:23.411Z,955.99
2018-05-11T01:47:23.403Z,956.01
2018-05-11T01:48:23.393Z,955.99
2018-05-11T01:49:23.386Z,956.06
2018-05-11T01:50:23.381Z,956.04
2018-05-11T01:51:23.370Z,956
2018-05-11T01:52:23.360Z,956.02
2018-05-11T01:53:23.353Z,955.99
2018-05-11T01:54:23.345Z,955.98
2018-05-11T01:55:23.338Z,955.97
2018-05-11T01:56:23.328Z,956.01
2018-05-11T01:57:23.364Z,955.99
2018-05-11T01:58:23.310Z,955.99
2018-05-11T01:59:23.303Z,955.99
2018-05-11T02:00:23.294Z,956.03
2018-05-11T02:01:23.288Z,956.01
2018-05-11T02:02:23.283Z,956.03
2018-05-11T02:03:23.268Z,956.02
2018-05-11T02:04:23.260Z,956.02
2018-05-11T02:05:23.252Z,956.03
2018-05-11T02:06:23.243Z,956.01
2018-05-11T02:07:23.238Z,956.06
2018-05-11T02:08:23.227Z,956.08
2018-05-11T02:09:23.217Z,956.06
2018-05-11T02:10:23.226Z,956.11
2018-05-11T02:11:23.199Z,956.07
2018-05-11T02:12:23.189Z,956.11
2018-05-11T02:13:23.182Z,956.09
2018-05-11T02:14:23.176Z,956.12
2018-05-11T02:15:23.167Z,956.16
2018-05-11T02:16:23.155Z,956.17
2018-05-11T02:17:23.148Z,956.21
2018-05-11T02:18:23.138Z,956.19
2018-05-11T02:19:23.128Z,956.22
2018-05-11T02:20:23.121Z,956.21
2018-05-11T02:21:23.111Z,956.23
2018-05-11T02:22:23.101Z,956.26
2018-05-11T02:23:23.097Z,956.23
2018-05-11T02:24:23.095Z,956.28
2018-05-11T02:25:23.075Z,956.28
2018-05-11T02:26:23.066Z,956.27
2018-05-11T02:27:23.066Z,956.27
2018-05-11T02:28:23.049Z,956.26
2018-05-11T02:29:23.039Z,956.29
2018-05-11T02:30:23.031Z,956.27
2018-05-11T02:31:23.023Z,956.28
2018-05-11T02:32:23.014Z,956.27
2018-05-11T02:33:23.004Z,956.29
2018-05-11T02:34:23.000Z,956.32
2018-05-11T02:35:22.995Z,956.33
2018-05-11T02:36:22.978Z,956.35
2018-05-11T02:37:22.968Z,956.34
2018-05-11T02:38:22.959Z,956.37
2018-05-11T02:39:22.952Z,956.35
2018-05-11T02:40:22.945Z,956.41
2018-05-11T02:41:22.934Z,956.35
2018-05-11T02:42:22.925Z,956.39
2018-05-11T02:43:22.938Z,956.38
2018-05-11T02:44:22.912Z,956.43
2018-05-11T02:45:22.898Z,956.38
2018-05-11T02:46:22.890Z,956.41
2018-05-11T02:47:22.879Z,956.44
2018-05-11T02:48:22.870Z,956.45
2018-05-11T02:49:22.864Z,956.45
2018-05-11T02:50:22.855Z,956.45
2018-05-11T02:51:22.845Z,956.48
2018-05-11T02:52:22.835Z,956.45
2018-05-11T02:53:22.829Z,956.46
2018-05-11T02:54:22.819Z,956.49
2018-05-11T02:55:22.811Z,956.48
2018-05-11T02:56:22.801Z,956.52
2018-05-11T02:57:22.807Z,956.49
2018-05-11T02:58:22.798Z,956.55
2018-05-11T02:59:22.774Z,956.56
2018-05-11T03:00:22.768Z,956.5
2018-05-11T03:01:22.759Z,956.49
2018-05-11T03:02:22.759Z,956.55
2018-05-11T03:03:22.741Z,956.5
2018-05-11T03:04:22.731Z,956.52
2018-05-11T03:05:22.722Z,956.53
2018-05-11T03:06:22.735Z,956.57
2018-05-11T03:07:22.706Z,956.55
2018-05-11T03:08:22.697Z,956.6
2018-05-11T03:09:22.688Z,956.59
2018-05-11T03:10:22.686Z,956.57
2018-05-11T03:11:22.671Z,956.58
2018-05-11T03:12:22.665Z,956.63
2018-05-11T03:13:22.653Z,956.62
2018-05-11T03:14:22.647Z,956.62
2018-05-11T03:15:22.637Z,956.62
2018-05-11T03:16:22.632Z,956.62
2018-05-11T03:17:22.705Z,956.66
2018-05-11T03:18:22.667Z,956.67
2018-05-11T03:19:22.601Z,956.65
2018-05-11T03:20:22.592Z,956.7
2018-05-11T03:21:22.584Z,956.72
2018-05-11T03:22:22.575Z,956.68
2018-05-11T03:23:22.567Z,956.68
2018-05-11T03:24:22.557Z,956.69
2018-05-11T03:25:22.568Z,956.69
2018-05-11T03:26:22.541Z,956.72
2018-05-11T03:27:22.531Z,956.74
2018-05-11T03:28:22.522Z,956.77
2018-05-11T03:29:22.514Z,956.78
2018-05-11T03:30:22.507Z,956.81
2018-05-11T03:31:22.498Z,956.82
2018-05-11T03:32:22.487Z,956.83
2018-05-11T03:33:22.481Z,956.83
2018-05-11T03:34:22.472Z,956.86
2018-05-11T03:35:22.462Z,956.84
2018-05-11T03:36:22.455Z,956.84
2018-05-11T03:37:22.446Z,956.87
2018-05-11T03:38:22.436Z,956.89
2018-05-11T03:39:22.427Z,956.9
2018-05-11T03:40:22.419Z,956.88
2018-05-11T03:41:22.412Z,956.93
2018-05-11T03:42:22.411Z,956.9
2018-05-11T03:43:22.393Z,956.9
2018-05-11T03:44:22.384Z,956.92
2018-05-11T03:45:22.376Z,956.94
2018-05-11T03:46:22.367Z,956.89
2018-05-11T03:47:22.359Z,956.89
2018-05-11T03:48:22.352Z,956.95
2018-05-11T03:49:22.343Z,956.93
2018-05-11T03:50:22.342Z,956.94
2018-05-11T03:51:22.324Z,956.96
2018-05-11T03:52:22.316Z,956.9
2018-05-11T03:53:22.306Z,956.96
2018-05-11T03:54:22.299Z,956.97
2018-05-11T03:55:22.291Z,956.95
2018-05-11T03:56:22.282Z,956.94
2018-05-11T03:57:22.291Z,956.96
2018-05-11T03:58:22.263Z,956.96
2018-05-11T03:59:22.255Z,956.95
2018-05-11T04:00:22.245Z,956.96
2018-05-11T04:01:22.238Z,956.96
2018-05-11T04:02:22.228Z,957
2018-05-11T04:03:22.220Z,957.03
2018-05-11T04:04:22.211Z,957.02
2018-05-11T04:05:22.203Z,957.01
2018-05-11T04:06:22.194Z,957.03
2018-05-11T04:07:22.192Z,957.08
2018-05-11T04:08:22.176Z,957.09
2018-05-11T04:09:22.168Z,957.14
2018-05-11T04:10:22.159Z,957.13
2018-05-11T04:11:22.350Z,957.14
2018-05-11T04:12:22.141Z,957.14
2018-05-11T04:13:22.134Z,957.21
2018-05-11T04:14:22.124Z,957.22
2018-05-11T04:15:22.115Z,957.23
2018-05-11T04:16:22.107Z,957.25
2018-05-11T04:17:22.100Z,957.26
2018-05-11T04:18:22.088Z,957.27
2018-05-11T04:19:22.080Z,957.27
2018-05-11T04:20:22.071Z,957.25
2018-05-11T04:21:22.063Z,957.26
2018-05-11T04:22:22.054Z,957.27
2018-05-11T04:23:22.045Z,957.26
2018-05-11T04:24:22.037Z,957.29
2018-05-11T04:25:22.029Z,957.3
2018-05-11T04:26:22.019Z,957.29
2018-05-11T04:27:22.012Z,957.33
2018-05-11T04:28:22.003Z,957.32
2018-05-11T04:29:21.996Z,957.33
2018-05-11T04:30:21.986Z,957.33
2018-05-11T04:31:21.977Z,957.36
2018-05-11T04:32:21.967Z,957.34
2018-05-11T04:33:21.958Z,957.31
2018-05-11T04:34:21.951Z,957.31
2018-05-11T04:35:21.946Z,957.31
2018-05-11T04:36:21.933Z,957.33
2018-05-11T04:37:21.938Z,957.33
2018-05-11T04:38:21.915Z,957.34
2018-05-11T04:39:21.906Z,957.37
2018-05-11T04:40:21.897Z,957.39
2018-05-11T04:41:21.890Z,957.41
2018-05-11T04:42:21.881Z,957.38
2018-05-11T04:43:21.890Z,957.43
2018-05-11T04:44:21.863Z,957.43
2018-05-11T04:45:21.858Z,957.43
2018-05-11T04:46:21.846Z,957.43
2018-05-11T04:47:21.837Z,957.47
2018-05-11T04:48:21.828Z,957.44
2018-05-11T04:49:21.819Z,957.45
2018-05-11T04:50:21.810Z,957.47
2018-05-11T04:51:21.801Z,957.44
2018-05-11T04:52:21.793Z,957.4
2018-05-11T04:53:21.784Z,957.45
2018-05-11T04:54:21.775Z,957.44
2018-05-11T04:55:21.765Z,957.42
2018-05-11T04:56:21.757Z,957.42
2018-05-11T04:57:21.751Z,957.44
2018-05-11T04:58:21.741Z,957.43
2018-05-11T04:59:21.730Z,957.45
2018-05-11T05:00:21.725Z,957.42
2018-05-11T05:01:21.715Z,957.42
2018-05-11T05:02:21.704Z,957.4
2018-05-11T05:03:21.698Z,957.43
2018-05-11T05:04:21.691Z,957.42
2018-05-11T05:05:21.681Z,957.44
2018-05-11T05:06:21.669Z,957.44
2018-05-11T05:07:21.659Z,957.48
2018-05-11T05:08:21.652Z,957.48
2018-05-11T05:09:21.659Z,957.47
2018-05-11T05:10:21.634Z,957.5
2018-05-11T05:11:21.624Z,957.53
2018-05-11T05:12:21.685Z,957.5
2018-05-11T05:13:21.607Z,957.54
2018-05-11T05:14:21.617Z,957.55
2018-05-11T05:15:21.590Z,957.51
2018-05-11T05:16:21.582Z,957.54
2018-05-11T05:17:21.573Z,957.55
2018-05-11T05:18:21.562Z,957.54
2018-05-11T05:19:21.656Z,957.56
2018-05-11T05:20:21.553Z,957.56
2018-05-11T05:21:21.537Z,957.58
2018-05-11T05:22:21.529Z,957.56
2018-05-11T05:23:21.524Z,957.58
2018-05-11T05:24:21.527Z,957.56
2018-05-11T05:25:21.503Z,957.57
2018-05-11T05:26:21.494Z,957.56
2018-05-11T05:27:21.503Z,957.58
2018-05-11T05:28:21.478Z,957.58
2018-05-11T05:29:21.468Z,957.54
2018-05-11T05:30:21.461Z,957.55
2018-05-11T05:31:21.451Z,957.57
2018-05-11T05:32:21.443Z,957.54
2018-05-11T05:33:21.434Z,957.52
2018-05-11T05:34:21.425Z,957.55
2018-05-11T05:35:21.416Z,957.54
2018-05-11T05:36:21.407Z,957.55
2018-05-11T05:37:21.399Z,957.51
2018-05-11T05:38:21.391Z,957.5
2018-05-11T05:39:21.382Z,957.53
2018-05-11T05:40:21.373Z,957.49
2018-05-11T05:41:21.366Z,957.5
2018-05-11T05:42:21.356Z,957.5
2018-05-11T05:43:21.347Z,957.5
2018-05-11T05:44:21.339Z,957.52
2018-05-11T05:45:21.330Z,957.54
2018-05-11T05:46:21.320Z,957.51
2018-05-11T05:47:21.314Z,957.48
2018-05-11T05:48:21.304Z,957.48
2018-05-11T05:49:21.517Z,957.5
2018-05-11T05:50:21.287Z,957.48
2018-05-11T05:51:21.278Z,957.51
2018-05-11T05:52:21.269Z,957.48
2018-05-11T05:53:21.279Z,957.5
2018-05-11T05:54:21.252Z,957.46
2018-05-11T05:55:21.243Z,957.54
2018-05-11T05:56:21.235Z,957.51
2018-05-11T05:57:21.226Z,957.51
2018-05-11T05:58:21.217Z,957.54
2018-05-11T05:59:21.209Z,957.53
2018-05-11T06:00:21.218Z,957.51
2018-05-11T06:01:21.190Z,957.52
2018-05-11T06:02:21.214Z,957.57
2018-05-11T06:03:21.174Z,957.53
2018-05-11T06:04:21.166Z,957.58
2018-05-11T06:05:21.157Z,957.61
2018-05-11T06:06:21.150Z,957.63
2018-05-11T06:07:21.142Z,957.62
2018-05-11T06:08:21.283Z,957.66
2018-05-11T06:09:21.124Z,957.63
2018-05-11T06:10:21.116Z,957.65
2018-05-11T06:11:21.107Z,957.63
2018-05-11T06:12:21.098Z,957.67
2018-05-11T06:13:21.090Z,957.68
2018-05-11T06:14:21.083Z,957.65
2018-05-11T06:15:21.073Z,957.65
2018-05-11T06:16:21.064Z,957.66
2018-05-11T06:17:21.057Z,957.63
2018-05-11T06:18:21.053Z,957.64
2018-05-11T06:19:21.039Z,957.6
2018-05-11T06:20:21.031Z,957.64
2018-05-11T06:21:21.023Z,957.64
2018-05-11T06:22:21.015Z,957.62
2018-05-11T06:23:21.006Z,957.65
2018-05-11T06:24:20.997Z,957.68
2018-05-11T06:25:21.008Z,957.63
2018-05-11T06:26:20.981Z,957.64
2018-05-11T06:27:20.972Z,957.64
2018-05-11T06:28:20.964Z,957.66
2018-05-11T06:29:20.956Z,957.67
2018-05-11T06:30:20.947Z,957.68
2018-05-11T06:31:20.938Z,957.69
2018-05-11T06:32:20.930Z,957.66
2018-05-11T06:33:20.923Z,957.67
2018-05-11T06:34:20.912Z,957.71
2018-05-11T06:35:20.905Z,957.73
2018-05-11T06:36:20.897Z,957.72
2018-05-11T06:37:20.889Z,957.72
2018-05-11T06:38:20.896Z,957.72
2018-05-11T06:39:20.872Z,957.71
2018-05-11T06:40:20.865Z,957.69
2018-05-11T06:41:20.872Z,957.72
2018-05-11T06:42:20.852Z,957.72
2018-05-11T06:43:20.840Z,957.75
2018-05-11T06:44:20.833Z,957.74
2018-05-11T06:45:20.823Z,957.76
2018-05-11T06:46:20.822Z,957.77
2018-05-11T06:47:20.811Z,957.79
2018-05-11T06:48:20.817Z,957.76
2018-05-11T06:49:21.011Z,957.8
2018-05-11T06:50:20.783Z,957.82
2018-05-11T06:51:20.776Z,957.81
2018-05-11T06:52:20.768Z,957.84
2018-05-11T06:53:20.759Z,957.82
2018-05-11T06:54:20.751Z,957.78
2018-05-11T06:55:20.743Z,957.8
2018-05-11T06:56:20.736Z,957.83
2018-05-11T06:57:20.727Z,957.82
2018-05-11T06:58:20.719Z,957.84
2018-05-11T06:59:20.711Z,957.88
2018-05-11T07:00:20.703Z,957.86
2018-05-11T07:01:20.696Z,957.82
2018-05-11T07:02:20.702Z,957.87
2018-05-11T07:03:20.683Z,957.88
2018-05-11T07:04:20.673Z,957.86
2018-05-11T07:05:20.681Z,957.84
2018-05-11T07:06:20.656Z,957.86
2018-05-11T07:07:20.649Z,957.87
2018-05-11T07:08:20.640Z,957.85
2018-05-11T07:09:20.632Z,957.85
2018-05-11T07:10:20.624Z,957.87
2018-05-11T07:11:20.615Z,957.82
2018-05-11T07:12:20.625Z,957.84
2018-05-11T07:13:20.600Z,957.86
2018-05-11T07:14:20.593Z,957.83
2018-05-11T07:15:20.583Z,957.86
2018-05-11T07:16:20.576Z,957.83
2018-05-11T07:17:20.569Z,957.87
2018-05-11T07:18:20.564Z,957.82
2018-05-11T07:19:20.657Z,957.79
2018-05-11T07:20:20.543Z,957.84
2018-05-11T07:21:20.536Z,957.83
2018-05-11T07:22:20.528Z,957.83
2018-05-11T07:23:20.536Z,957.84
2018-05-11T07:24:20.513Z,957.84
2018-05-11T07:25:20.503Z,957.81
2018-05-11T07:26:20.500Z,957.84
2018-05-11T07:27:20.487Z,957.82
2018-05-11T07:28:20.480Z,957.84
2018-05-11T07:29:20.472Z,957.82
2018-05-11T07:30:20.464Z,957.86
2018-05-11T07:31:20.457Z,957.84
2018-05-11T07:32:20.449Z,957.79
2018-05-11T07:33:20.441Z,957.83
2018-05-11T07:34:20.444Z,957.82
2018-05-11T07:35:20.482Z,957.83
2018-05-11T07:36:20.416Z,957.82
2018-05-11T07:37:20.410Z,957.87
2018-05-11T07:38:20.402Z,957.83
2018-05-11T07:39:20.397Z,957.86
2018-05-11T07:40:20.387Z,957.84
2018-05-11T07:41:20.380Z,957.83
2018-05-11T07:42:20.372Z,957.88
2018-05-11T07:43:20.415Z,957.85
2018-05-11T07:44:20.356Z,957.84
2018-05-11T07:45:20.353Z,957.87
2018-05-11T07:46:20.342Z,957.83
2018-05-11T07:47:20.333Z,957.88
2018-05-11T07:48:20.326Z,957.87
2018-05-11T07:49:20.317Z,957.86
2018-05-11T07:50:20.308Z,957.91
2018-05-11T07:51:20.303Z,957.86
2018-05-11T07:52:20.295Z,957.84
2018-05-11T07:53:20.286Z,957.87
2018-05-11T07:54:20.279Z,957.84
2018-05-11T07:55:20.272Z,957.9
2018-05-11T07:56:20.264Z,957.86
2018-05-11T07:57:20.256Z,957.87
2018-05-11T07:58:20.247Z,957.91
2018-05-11T07:59:20.239Z,957.88
2018-05-11T08:00:20.232Z,957.88
2018-05-11T08:01:20.225Z,957.87
2018-05-11T08:02:20.217Z,957.86
2018-05-11T08:03:20.212Z,957.9
2018-05-11T08:04:20.244Z,957.88
2018-05-11T08:05:20.193Z,957.91
2018-05-11T08:06:20.184Z,957.89
2018-05-11T08:07:20.178Z,957.9
2018-05-11T08:08:20.175Z,957.93
2018-05-11T08:09:20.161Z,957.96
2018-05-11T08:10:20.155Z,957.95
2018-05-11T08:11:20.147Z,957.93
2018-05-11T08:12:20.140Z,957.92
2018-05-11T08:13:20.133Z,957.87
2018-05-11T08:14:20.241Z,957.88
2018-05-11T08:15:20.118Z,957.88
2018-05-11T08:16:20.111Z,957.92
2018-05-11T08:17:20.101Z,957.92
2018-05-11T08:18:20.121Z,957.91
2018-05-11T08:19:20.088Z,957.9
2018-05-11T08:20:20.079Z,957.86
2018-05-11T08:21:20.094Z,957.88
2018-05-11T08:22:20.067Z,957.91
2018-05-11T08:23:20.057Z,957.92
2018-05-11T08:24:20.051Z,957.89
2018-05-11T08:25:20.071Z,957.96
2018-05-11T08:26:20.038Z,957.9
2018-05-11T08:27:20.029Z,957.95
2018-05-11T08:28:20.023Z,957.95
2018-05-11T08:29:20.017Z,957.94
2018-05-11T08:30:20.010Z,957.93
2018-05-11T08:31:20.002Z,957.97
2018-05-11T08:32:20.063Z,958
2018-05-11T08:33:19.989Z,957.99
2018-05-11T08:34:19.981Z,958
2018-05-11T08:35:19.977Z,957.98
2018-05-11T08:36:19.970Z,958
2018-05-11T08:37:19.963Z,957.98
2018-05-11T08:38:19.956Z,957.96
2018-05-11T08:39:19.949Z,958.01
2018-05-11T08:40:19.944Z,957.98
2018-05-11T08:41:19.938Z,958.03
2018-05-11T08:42:19.931Z,958
2018-05-11T08:43:19.925Z,957.96
2018-05-11T08:44:19.917Z,957.94
2018-05-11T08:45:19.910Z,957.93
2018-05-11T08:46:19.949Z,957.95
2018-05-11T08:47:19.897Z,957.92
2018-05-11T08:48:19.890Z,957.9
2018-05-11T08:49:19.883Z,957.89
2018-05-11T08:50:19.878Z,957.89
2018-05-11T08:51:19.872Z,957.92
2018-05-11T08:52:19.867Z,957.9
2018-05-11T08:53:19.859Z,957.92
2018-05-11T08:54:19.851Z,957.91
2018-05-11T08:55:19.846Z,957.93
2018-05-11T08:56:19.871Z,957.94
2018-05-11T08:57:19.850Z,957.97
2018-05-11T08:58:19.895Z,957.94
2018-05-11T08:59:19.822Z,957.95
2018-05-11T09:00:19.815Z,957.94
2018-05-11T09:01:19.810Z,957.94
2018-05-11T09:02:19.803Z,957.94
2018-05-11T09:03:19.803Z,957.92
2018-05-11T09:04:19.792Z,957.93
2018-05-11T09:05:19.787Z,957.92
2018-05-11T09:06:19.782Z,957.88
2018-05-11T09:07:19.777Z,957.92
2018-05-11T09:08:19.793Z,957.88
2018-05-11T09:09:19.781Z,957.96
2018-05-11T09:10:19.761Z,957.93
2018-05-11T09:11:19.754Z,957.93
2018-05-11T09:12:19.749Z,957.95
2018-05-11T09:13:19.748Z,957.94
2018-05-11T09:14:19.755Z,957.97
2018-05-11T09:15:19.736Z,957.92
2018-05-11T09:16:19.736Z,957.9
2018-05-11T09:17:19.727Z,957.91
2018-05-11T09:18:19.720Z,957.91
2018-05-11T09:19:19.717Z,957.91
2018-05-11T09:20:19.712Z,957.92
2018-05-11T09:21:19.769Z,957.91
2018-05-11T09:22:19.705Z,957.92
2018-05-11T09:23:19.697Z,957.89
2018-05-11T09:24:19.693Z,957.92
2018-05-11T09:25:19.689Z,957.91
2018-05-11T09:26:19.684Z,958
2018-05-11T09:27:19.692Z,957.92
2018-05-11T09:28:19.673Z,957.96
2018-05-11T09:29:19.670Z,957.96
2018-05-11T09:30:19.665Z,957.91
2018-05-11T09:31:19.660Z,957.95
2018-05-11T09:32:19.655Z,957.93
2018-05-11T09:33:19.652Z,957.91
2018-05-11T09:34:19.648Z,957.91
2018-05-11T09:35:19.643Z,957.91
2018-05-11T09:36:19.639Z,957.9
2018-05-11T09:37:19.654Z,957.9
2018-05-11T09:38:19.630Z,957.95
2018-05-11T09:39:19.626Z,957.95
2018-05-11T09:40:19.621Z,957.96
2018-05-11T09:41:19.617Z,957.91
2018-05-11T09:42:19.612Z,957.95
2018-05-11T09:43:19.612Z,957.95
2018-05-11T09:44:19.604Z,957.94
2018-05-11T09:45:19.599Z,957.92
2018-05-11T09:46:19.595Z,957.92
2018-05-11T09:47:19.590Z,957.96
2018-05-11T09:48:19.585Z,957.94
2018-05-11T09:49:19.841Z,957.94
2018-05-11T09:50:19.576Z,957.97
2018-05-11T09:51:19.570Z,958
2018-05-11T09:52:19.569Z,958.01
2018-05-11T09:53:19.563Z,957.97
2018-05-11T09:54:19.559Z,958
2018-05-11T09:55:19.554Z,957.98
2018-05-11T09:56:19.550Z,957.94
2018-05-11T09:57:19.545Z,957.96
2018-05-11T09:58:19.549Z,957.94
2018-05-11T09:59:19.536Z,957.94
2018-05-11T10:00:19.547Z,957.95
2018-05-11T10:01:19.526Z,957.97
2018-05-11T10:02:19.522Z,957.97
2018-05-11T10:03:19.517Z,957.92
2018-05-11T10:04:19.513Z,957.96
2018-05-11T10:05:19.508Z,957.92
2018-05-11T10:06:19.502Z,957.94
2018-05-11T10:07:19.502Z,957.97
2018-05-11T10:08:19.494Z,957.95
2018-05-11T10:09:19.489Z,957.89
2018-05-11T10:10:19.505Z,957.91
2018-05-11T10:11:19.481Z,957.92
2018-05-11T10:12:19.475Z,957.92
2018-05-11T10:13:19.469Z,957.9
2018-05-11T10:14:19.466Z,957.92
2018-05-11T10:15:19.462Z,957.92
2018-05-11T10:16:19.466Z,957.87
2018-05-11T10:17:19.451Z,957.91
2018-05-11T10:18:19.449Z,957.92
2018-05-11T10:19:19.443Z,957.93
2018-05-11T10:20:19.438Z,957.91
2018-05-11T10:21:19.433Z,957.94
2018-05-11T10:22:19.429Z,957.96
2018-05-11T10:23:19.423Z,957.9
2018-05-11T10:24:19.419Z,957.96
2018-05-11T10:25:19.413Z,957.96
2018-05-11T10:26:19.417Z,957.99
2018-05-11T10:27:19.408Z,957.98
2018-05-11T10:28:19.400Z,957.98
2018-05-11T10:29:19.394Z,958.01
2018-05-11T10:30:19.390Z,958.03
2018-05-11T10:31:19.386Z,958.06
2018-05-11T10:32:19.389Z,958.05
2018-05-11T10:33:19.377Z,958.05
2018-05-11T10:34:19.374Z,958.04
2018-05-11T10:35:19.369Z,958.07
2018-05-11T10:36:19.363Z,958.02
2018-05-11T10:37:19.361Z,958.01
2018-05-11T10:38:19.356Z,957.99
2018-05-11T10:39:19.356Z,958.01
2018-05-11T10:40:19.348Z,958.02
2018-05-11T10:41:19.344Z,958.05
2018-05-11T10:42:19.340Z,957.99
2018-05-11T10:43:19.336Z,957.97
2018-05-11T10:44:19.332Z,957.98
2018-05-11T10:45:19.328Z,958.02
2018-05-11T10:46:19.324Z,957.99
2018-05-11T10:47:19.323Z,957.99
2018-05-11T10:48:19.317Z,958.03
2018-05-11T10:49:19.312Z,958
2018-05-11T10:50:19.309Z,958.01
2018-05-11T10:51:19.305Z,958
2018-05-11T10:52:19.331Z,958.03
2018-05-11T10:53:19.297Z,958.05
2018-05-11T10:54:19.293Z,958.05
2018-05-11T10:55:19.288Z,958.06
2018-05-11T10:56:19.285Z,958.06
2018-05-11T10:57:19.282Z,958.05
2018-05-11T10:58:19.277Z,958.05
2018-05-11T10:59:19.274Z,958.05
2018-05-11T11:00:19.271Z,958.07
2018-05-11T11:01:19.264Z,958.07
2018-05-11T11:02:19.327Z,958.08
2018-05-11T11:03:19.257Z,958.06
2018-05-11T11:04:19.260Z,958.07
2018-05-11T11:05:19.246Z,958.06
2018-05-11T11:06:19.244Z,958.09
2018-05-11T11:07:19.238Z,958.1
2018-05-11T11:08:19.234Z,958.08
2018-05-11T11:09:19.230Z,958.05
2018-05-11T11:10:19.227Z,958
2018-05-11T11:11:19.223Z,958.03
2018-05-11T11:12:19.219Z,958.02
2018-05-11T11:13:19.213Z,958.06
2018-05-11T11:14:19.218Z,958.03
2018-05-11T11:15:19.206Z,958.01
2018-05-11T11:16:19.206Z,958.01
2018-05-11T11:17:19.197Z,958.01
2018-05-11T11:18:19.195Z,958
2018-05-11T11:19:19.190Z,957.98
2018-05-11T11:20:19.186Z,957.99
2018-05-11T11:21:19.200Z,957.94
2018-05-11T11:22:19.178Z,957.97
2018-05-11T11:23:19.177Z,957.92
2018-05-11T11:24:19.172Z,957.91
2018-05-11T11:25:19.170Z,957.89
2018-05-11T11:26:19.165Z,957.86
2018-05-11T11:27:19.162Z,957.82
2018-05-11T11:28:19.385Z,957.79
2018-05-11T11:29:19.161Z,957.8
2018-05-11T11:30:19.153Z,957.71
2018-05-11T11:31:19.150Z,957.71
2018-05-11T11:32:19.147Z,957.74
2018-05-11T11:33:19.145Z,957.73
2018-05-11T11:34:19.170Z,957.7
2018-05-11T11:35:19.138Z,957.7
2018-05-11T11:36:19.137Z,957.72
2018-05-11T11:37:19.133Z,957.72
2018-05-11T11:38:19.132Z,957.68
2018-05-11T11:39:19.153Z,957.67
2018-05-11T11:40:19.126Z,957.69
2018-05-11T11:41:19.121Z,957.72
2018-05-11T11:42:19.120Z,957.71
2018-05-11T11:43:19.118Z,957.69
2018-05-11T11:44:19.114Z,957.71
2018-05-11T11:45:19.114Z,957.76
2018-05-11T11:46:19.111Z,957.71
2018-05-11T11:47:19.108Z,957.75
2018-05-11T11:48:19.107Z,957.78
2018-05-11T11:49:19.103Z,957.74
2018-05-11T11:50:19.101Z,957.69
2018-05-11T11:51:19.099Z,957.69
2018-05-11T11:52:19.097Z,957.66
2018-05-11T11:53:19.092Z,957.7
2018-05-11T11:54:19.090Z,957.68
2018-05-11T11:55:19.089Z,957.66
2018-05-11T11:56:19.103Z,957.65
2018-05-11T11:57:19.084Z,957.64
2018-05-11T11:58:19.081Z,957.63
2018-05-11T11:59:19.078Z,957.62
2018-05-11T12:00:19.079Z,957.63
2018-05-11T12:01:19.073Z,957.64
2018-05-11T12:02:19.072Z,957.61
2018-05-11T12:03:19.112Z,957.6
2018-05-11T12:04:19.068Z,957.56
2018-05-11T12:05:19.085Z,957.63
2018-05-11T12:06:19.067Z,957.58
2018-05-11T12:07:19.061Z,957.59
2018-05-11T12:08:19.060Z,957.56
2018-05-11T12:09:19.059Z,957.53
2018-05-11T12:10:19.056Z,957.55
2018-05-11T12:11:19.055Z,957.56
2018-05-11T12:12:19.053Z,957.58
2018-05-11T12:13:19.052Z,957.56
2018-05-11T12:14:19.048Z,957.59
2018-05-11T12:15:19.047Z,957.53
2018-05-11T12:16:19.059Z,957.53
2018-05-11T12:17:19.044Z,957.55
2018-05-11T12:18:19.043Z,957.54
2018-05-11T12:19:19.041Z,957.49
2018-05-11T12:20:19.040Z,957.49
2018-05-11T12:21:19.038Z,957.48
2018-05-11T12:22:19.036Z,957.47
2018-05-11T12:23:19.037Z,957.47
2018-05-11T12:24:19.036Z,957.47
2018-05-11T12:25:19.033Z,957.47
2018-05-11T12:26:19.090Z,957.45
2018-05-11T12:27:19.032Z,957.46
2018-05-11T12:28:19.030Z,957.48
2018-05-11T12:29:19.034Z,957.48
2018-05-11T12:30:19.034Z,957.48
2018-05-11T12:31:19.030Z,957.45